Time;durP1;ratioP1;P1;durP2;ratioP2;P2;SDS_P1;SDS_P2;PMS_P1;PMS_P2;Temp;Humidity;BMP_temperature;BMP_pressure;BME280_temperature;BME280_humidity;BME280_pressure;Samples;Min_cycle;Max_cycle;Signal;HPM_P1;HPM_P2
2021/11/12 00:02:40;;;;;;;;;;;8.00;99.90;;;;;;5042097;28;19987;-83
2021/11/12 00:13:20;;;;;;;;;;;7.90;99.90;;;;;;5058652;28;20299;-82
2021/11/12 00:15:51;;;;;;;;;;;8.00;99.90;;;;;;5058185;28;19949;-83
2021/11/12 00:18:18;;;;;;;;;;;7.90;99.90;;;;;;5053081;28;19932;-84
2021/11/12 00:20:44;;;;;;;;;;;7.90;99.90;;;;;;5055097;28;19929;-84
2021/11/12 00:23:11;;;;;;;;;;;8.00;99.90;;;;;;5057193;28;19929;-83
2021/11/12 00:25:37;;;;;;;;;;;8.00;99.90;;;;;;5058131;28;20585;-83
2021/11/12 00:28:05;;;;;;;;;;;7.90;99.90;;;;;;5058071;28;19932;-82
2021/11/12 00:30:47;;;;;;;;;;;8.00;99.90;;;;;;5057059;28;19913;-83
2021/11/12 00:33:25;;;;;;;;;;;8.00;99.90;;;;;;5053735;28;19925;-83
2021/11/12 00:35:58;;;;;;;;;;;8.10;99.90;;;;;;5051878;28;19984;-83
2021/11/12 00:38:28;;;;;;;;;;;8.10;99.90;;;;;;5048658;28;19933;-84
2021/11/12 00:40:57;;;;;;;;;;;8.00;99.90;;;;;;5051470;28;19978;-83
2021/11/12 00:43:31;;;;;;;;;;;8.00;99.90;;;;;;5043383;28;20364;-83
2021/11/12 00:46:09;;;;;;;;;;;8.00;99.90;;;;;;5039435;28;19933;-85
2021/11/12 00:48:38;;;;;;;;;;;8.00;99.90;;;;;;5042367;28;19925;-83
2021/11/12 00:51:18;;;;;;;;;;;7.80;99.90;;;;;;5040524;28;19940;-85
2021/11/12 00:53:53;;;;;;;;;;;8.00;99.90;;;;;;5039711;28;19933;-86
2021/11/12 00:56:22;;;;;;;;;;;8.00;99.90;;;;;;5045209;28;19925;-85
2021/11/12 00:58:48;;;;;;;;;;;8.00;99.90;;;;;;5036552;28;19932;-84
2021/11/12 01:01:15;;;;;;;;;;;8.00;99.90;;;;;;5037042;28;19969;-84
2021/11/12 01:03:43;;;;;;;;;;;8.00;99.90;;;;;;5037519;28;19976;-85
2021/11/12 01:06:10;;;;;;;;;;;7.90;99.90;;;;;;5038007;28;19924;-85
2021/11/12 01:08:36;;;;;;;;;;;8.00;99.90;;;;;;5039059;28;19931;-84
2021/11/12 01:11:04;;;;;;;;;;;7.60;99.90;;;;;;5040349;28;19925;-84
2021/11/12 01:13:31;;;;;;;;;;;7.80;99.90;;;;;;5038830;28;19927;-85
2021/11/12 01:15:58;;;;;;;;;;;7.80;99.90;;;;;;5039387;28;19925;-85
2021/11/12 01:18:25;;;;;;;;;;;7.30;99.90;;;;;;5042985;28;20380;-85
2021/11/12 01:20:53;;;;;;;;;;;7.90;99.90;;;;;;5049262;28;19951;-84
2021/11/12 01:23:20;;;;;;;;;;;7.80;99.90;;;;;;5050531;28;19925;-84
2021/11/12 01:25:46;;;;;;;;;;;7.80;99.90;;;;;;5051109;28;19925;-84
2021/11/12 01:28:13;;;;;;;;;;;7.70;99.90;;;;;;5046450;28;19987;-84
2021/11/12 01:30:39;;;;;;;;;;;7.80;99.90;;;;;;5047632;28;19933;-84
2021/11/12 01:33:06;;;;;;;;;;;7.70;99.90;;;;;;5049537;28;19932;-84
2021/11/12 01:35:33;;;;;;;;;;;7.80;99.90;;;;;;5048289;28;20035;-84
2021/11/12 01:38:02;;;;;;;;;;;7.80;99.90;;;;;;5045809;28;19947;-84
2021/11/12 01:40:29;;;;;;;;;;;7.80;99.90;;;;;;5045935;28;19948;-84
2021/11/12 01:43:18;;;;;;;;;;;7.80;99.90;;;;;;5045350;28;19948;-84
2021/11/12 01:45:57;;;;;;;;;;;7.80;99.90;;;;;;5045047;28;19925;-84
2021/11/12 01:48:34;;;;;;;;;;;7.80;99.90;;;;;;5044704;28;19948;-84
2021/11/12 01:51:05;;;;;;;;;;;7.80;99.90;;;;;;5044645;28;19925;-84
2021/11/12 01:53:36;;;;;;;;;;;7.60;99.90;;;;;;5046841;28;19925;-85
2021/11/12 01:56:25;;;;;;;;;;;7.80;99.90;;;;;;5044353;28;20016;-84
2021/11/12 01:59:07;;;;;;;;;;;8.20;99.90;;;;;;5044725;28;19926;-85
2021/11/12 02:01:34;;;;;;;;;;;7.80;99.90;;;;;;5044537;28;20016;-85
2021/11/12 02:04:02;;;;;;;;;;;7.80;99.90;;;;;;5055016;28;19932;-83
2021/11/12 02:06:28;;;;;;;;;;;7.90;99.90;;;;;;5059854;28;19931;-83
2021/11/12 02:08:59;;;;;;;;;;;7.80;99.90;;;;;;5048784;28;20303;-83
2021/11/12 02:11:25;;;;;;;;;;;7.80;99.90;;;;;;5051372;28;19929;-84
2021/11/12 02:13:52;;;;;;;;;;;7.80;99.90;;;;;;5059362;28;19925;-83
2021/11/12 02:16:24;;;;;;;;;;;7.80;99.90;;;;;;5050128;28;20327;-83
2021/11/12 02:18:51;;;;;;;;;;;7.80;99.90;;;;;;5046532;28;19947;-85
2021/11/12 02:21:26;;;;;;;;;;;7.70;99.90;;;;;;5028179;28;19935;-84
2021/11/12 02:23:58;;;;;;;;;;;7.70;99.90;;;;;;5045027;28;20016;-84
2021/11/12 02:26:27;;;;;;;;;;;7.70;99.90;;;;;;5044820;28;19979;-84
2021/11/12 02:28:54;;;;;;;;;;;7.80;99.90;;;;;;5044487;28;19925;-84
2021/11/12 02:31:21;;;;;;;;;;;7.70;99.90;;;;;;5045150;28;19932;-84
2021/11/12 02:33:48;;;;;;;;;;;7.70;99.90;;;;;;5044993;28;19925;-84
2021/11/12 02:36:15;;;;;;;;;;;7.80;99.90;;;;;;5044556;28;19979;-84
2021/11/12 02:38:44;;;;;;;;;;;7.80;99.90;;;;;;5044482;28;19925;-84
2021/11/12 02:41:10;;;;;;;;;;;7.80;99.90;;;;;;5044398;28;19952;-83
2021/11/12 02:43:38;;;;;;;;;;;7.80;99.90;;;;;;5044372;28;19925;-84
2021/11/12 02:46:05;;;;;;;;;;;7.80;99.90;;;;;;5071647;22;19947;-81
2021/11/12 02:48:35;;;;;;;;;;;7.80;99.90;;;;;;5071409;28;20011;-83
2021/11/12 02:51:05;;;;;;;;;;;7.80;99.90;;;;;;5072931;28;19925;-82
2021/11/12 02:53:31;;;;;;;;;;;7.80;99.90;;;;;;5073234;28;19931;-82
2021/11/12 02:56:02;;;;;;;;;;;7.80;99.90;;;;;;5069288;28;19986;-83
2021/11/12 02:58:30;;;;;;;;;;;7.80;99.90;;;;;;5067782;28;19925;-82
2021/11/12 03:00:57;;;;;;;;;;;7.80;99.90;;;;;;5062895;28;19925;-83
2021/11/12 03:03:23;;;;;;;;;;;7.80;99.90;;;;;;5060207;28;19928;-83
2021/11/12 03:05:50;;;;;;;;;;;7.80;99.90;;;;;;5060836;28;19944;-83
2021/11/12 03:08:17;;;;;;;;;;;7.80;99.90;;;;;;5061332;28;20299;-83
2021/11/12 03:10:44;;;;;;;;;;;7.80;99.90;;;;;;5060406;28;19931;-83
2021/11/12 03:13:12;;;;;;;;;;;7.70;99.90;;;;;;5060785;28;19935;-83
2021/11/12 03:15:39;;;;;;;;;;;7.80;99.90;;;;;;5059584;28;19952;-83
2021/11/12 03:18:07;;;;;;;;;;;7.70;99.90;;;;;;5060599;28;19925;-83
2021/11/12 03:20:35;;;;;;;;;;;7.80;99.90;;;;;;5061554;28;19937;-82
2021/11/12 03:23:05;;;;;;;;;;;7.80;99.90;;;;;;5062192;28;19924;-83
2021/11/12 03:25:36;;;;;;;;;;;7.80;99.90;;;;;;5059853;28;20433;-82
2021/11/12 03:28:12;;;;;;;;;;;7.80;99.90;;;;;;5059678;28;19925;-82
2021/11/12 03:50:13;;;;;;;;;;;7.90;99.90;;;;;;5058382;28;20265;-83
2021/11/12 04:04:07;;;;;;;;;;;7.80;99.90;;;;;;5075880;28;19919;-81
2021/11/12 04:06:40;;;;;;;;;;;7.90;99.90;;;;;;5075722;28;19999;-82
2021/11/12 05:10:05;;;;;;;;;;;7.80;99.90;;;;;;5075492;28;19947;-84
2021/11/12 05:12:47;;;;;;;;;;;7.80;99.90;;;;;;5075228;28;19947;-83
2021/11/12 05:45:45;;;;;;;;;;;7.80;99.90;;;;;;5064106;28;20426;-83
2021/11/12 05:51:05;;;;;;;;;;;7.40;99.90;;;;;;5061808;28;19927;-83
2021/11/12 05:56:23;;;;;;;;;;;7.60;99.90;;;;;;5045038;28;19912;-80
2021/11/12 05:58:52;;;;;;;;;;;7.60;99.90;;;;;;5064144;28;19928;-82
2021/11/12 06:01:19;;;;;;;;;;;7.60;99.90;;;;;;5072122;28;19924;-80
2021/11/12 06:03:45;;;;;;;;;;;7.60;99.90;;;;;;5072080;28;20007;-83
2021/11/12 06:06:12;;;;;;;;;;;7.60;99.90;;;;;;5064089;28;20441;-83
2021/11/12 06:08:39;;;;;;;;;;;7.50;99.90;;;;;;5062767;28;19925;-82
2021/11/12 06:11:05;;;;;;;;;;;7.60;99.90;;;;;;5060761;28;20008;-83
2021/11/12 06:13:31;;;;;;;;;;;7.60;99.90;;;;;;5063671;28;19925;-80
2021/11/12 06:15:59;;;;;;;;;;;7.60;99.90;;;;;;5063173;28;19948;-83
2021/11/12 06:18:26;;;;;;;;;;;7.60;99.90;;;;;;5061371;28;19998;-82
2021/11/12 06:20:53;;;;;;;;;;;7.60;99.90;;;;;;5061746;28;19925;-83
2021/11/12 06:23:19;;;;;;;;;;;7.60;99.90;;;;;;5064441;28;19929;-82
2021/11/12 06:25:46;;;;;;;;;;;7.60;99.90;;;;;;5062102;28;20405;-82
2021/11/12 06:28:13;;;;;;;;;;;7.60;99.90;;;;;;5075733;28;19913;-83
2021/11/12 06:30:39;;;;;;;;;;;7.60;99.90;;;;;;5064343;28;19948;-82
2021/11/12 06:33:07;;;;;;;;;;;7.50;99.90;;;;;;5062661;28;20438;-82
2021/11/12 06:35:34;;;;;;;;;;;7.50;99.90;;;;;;5064745;28;19928;-81
2021/11/12 06:38:00;;;;;;;;;;;7.50;99.90;;;;;;5071526;28;20015;-81
2021/11/12 06:40:27;;;;;;;;;;;7.50;99.90;;;;;;5065718;28;20418;-82
2021/11/12 06:43:09;;;;;;;;;;;7.50;99.90;;;;;;5066856;28;20016;-82
2021/11/12 06:51:09;;;;;;;;;;;7.50;99.90;;;;;;5062132;28;20406;-81
2021/11/12 06:53:36;;;;;;;;;;;7.50;99.90;;;;;;5061935;28;19925;-82
2021/11/12 06:56:02;;;;;;;;;;;7.50;99.90;;;;;;5062950;28;19924;-82
2021/11/12 06:58:29;;;;;;;;;;;7.50;99.90;;;;;;5062858;28;19944;-81
2021/11/12 07:00:56;;;;;;;;;;;7.50;99.90;;;;;;5064284;28;19971;-81
2021/11/12 07:03:24;;;;;;;;;;;7.40;99.90;;;;;;5064416;28;19924;-82
2021/11/12 07:05:50;;;;;;;;;;;7.50;99.90;;;;;;5061822;28;19932;-81
2021/11/12 07:08:17;;;;;;;;;;;7.50;99.90;;;;;;5061791;28;19924;-82
2021/11/12 07:10:44;;;;;;;;;;;7.50;99.90;;;;;;5061705;28;19924;-80
2021/11/12 07:13:10;;;;;;;;;;;7.50;99.90;;;;;;5060508;28;20019;-80
2021/11/12 07:15:37;;;;;;;;;;;7.50;99.90;;;;;;5059988;28;19928;-82
2021/11/12 07:18:04;;;;;;;;;;;7.50;99.90;;;;;;5059415;28;19952;-82
2021/11/12 07:20:32;;;;;;;;;;;7.50;99.90;;;;;;5060564;28;19924;-82
2021/11/12 07:22:58;;;;;;;;;;;7.50;99.90;;;;;;5065851;28;19924;-81
2021/11/12 07:25:25;;;;;;;;;;;7.50;99.90;;;;;;5066503;28;20000;-81
2021/11/12 07:27:51;;;;;;;;;;;7.40;99.90;;;;;;5063958;28;19925;-82
2021/11/12 07:30:20;;;;;;;;;;;7.40;99.90;;;;;;5063891;28;19970;-81
2021/11/12 07:32:47;;;;;;;;;;;7.40;99.90;;;;;;5063922;28;20039;-81
2021/11/12 07:35:17;;;;;;;;;;;7.40;99.90;;;;;;5065349;28;20267;-81
2021/11/12 07:37:45;;;;;;;;;;;7.50;99.90;;;;;;5060500;28;19924;-80
2021/11/12 07:40:20;;;;;;;;;;;7.40;99.90;;;;;;5059105;28;19928;-82
2021/11/12 07:42:56;;;;;;;;;;;7.50;99.90;;;;;;5061968;28;20403;-85
2021/11/12 07:45:35;;;;;;;;;;;7.50;99.90;;;;;;5071046;28;19924;-81
2021/11/12 07:48:01;;;;;;;;;;;7.50;99.90;;;;;;5068374;28;19932;-83
2021/11/12 07:50:28;;;;;;;;;;;7.50;99.90;;;;;;5067965;28;19931;-82
2021/11/12 07:52:59;;;;;;;;;;;7.50;99.90;;;;;;5067253;28;19925;-82
2021/11/12 07:55:26;;;;;;;;;;;7.50;99.90;;;;;;5065992;28;19960;-81
2021/11/12 07:57:53;;;;;;;;;;;7.50;99.90;;;;;;5063272;28;19928;-82
2021/11/12 08:00:20;;;;;;;;;;;7.60;99.90;;;;;;5065514;28;19912;-82
2021/11/12 08:02:47;;;;;;;;;;;7.50;99.90;;;;;;5068454;28;19932;-82
2021/11/12 08:05:19;;;;;;;;;;;7.60;99.90;;;;;;5075029;28;19925;-82
2021/11/12 08:07:46;;;;;;;;;;;7.60;99.90;;;;;;5078007;28;20027;-81
2021/11/12 08:10:18;;;;;;;;;;;7.60;99.90;;;;;;5078438;28;19915;-84
2021/11/12 08:12:51;;;;;;;;;;;7.60;99.90;;;;;;5078356;28;19925;-81
2021/11/12 08:15:33;;;;;;;;;;;7.60;99.90;;;;;;5077834;28;19925;-81
2021/11/12 08:18:11;;;;;;;;;;;7.60;99.90;;;;;;5073868;28;19925;-80
2021/11/12 08:20:41;;;;;;;;;;;7.60;99.90;;;;;;5072891;28;19924;-81
2021/11/12 08:23:21;;;;;;;;;;;7.60;99.90;;;;;;5070054;28;19920;-84
2021/11/12 08:25:53;;;;;;;;;;;8.20;99.90;;;;;;5065093;28;19935;-81
2021/11/12 08:28:54;;;;;;;;;;;7.60;99.90;;;;;;5063312;28;19932;-81
2021/11/12 08:31:35;;;;;;;;;;;7.50;99.90;;;;;;5062317;28;19932;-81
2021/11/12 08:34:05;;;;;;;;;;;7.50;99.90;;;;;;5063650;28;20019;-82
2021/11/12 08:36:39;;;;;;;;;;;7.50;99.90;;;;;;5064842;28;19925;-82
2021/11/12 08:39:16;;;;;;;;;;;7.20;99.90;;;;;;5065247;28;19925;-82
2021/11/12 08:41:48;;;;;;;;;;;7.60;99.90;;;;;;5063115;28;20302;-82
2021/11/12 08:44:21;;;;;;;;;;;7.70;99.90;;;;;;5058860;28;19925;-83
2021/11/12 08:46:52;;;;;;;;;;;7.70;99.90;;;;;;5061880;28;19925;-83
2021/11/12 08:49:23;;;;;;;;;;;7.70;99.90;;;;;;5064946;28;19951;-82
2021/11/12 08:51:49;;;;;;;;;;;7.70;99.90;;;;;;5066319;28;19951;-81
2021/11/12 08:54:22;;;;;;;;;;;8.30;99.90;;;;;;5067448;28;19952;-82
2021/11/12 08:56:52;;;;;;;;;;;7.80;99.90;;;;;;5067152;28;19924;-81
2021/11/12 08:59:19;;;;;;;;;;;7.80;99.90;;;;;;5073247;28;19916;-83
2021/11/12 09:01:46;;;;;;;;;;;7.90;99.90;;;;;;5073310;28;19925;-81
2021/11/12 09:04:14;;;;;;;;;;;7.80;99.90;;;;;;5073411;28;20001;-81
2021/11/12 09:06:41;;;;;;;;;;;7.90;99.90;;;;;;5071491;28;19924;-83
2021/11/12 09:09:08;;;;;;;;;;;7.90;99.90;;;;;;5072482;28;19924;-82
2021/11/12 09:11:35;;;;;;;;;;;8.10;99.90;;;;;;5073344;28;19968;-82
2021/11/12 09:14:05;;;;;;;;;;;8.10;99.90;;;;;;5073578;28;19928;-82
2021/11/12 09:16:33;;;;;;;;;;;8.20;99.90;;;;;;5074446;28;19925;-82
2021/11/12 09:19:00;;;;;;;;;;;8.20;99.90;;;;;;5065225;28;19975;-82
2021/11/12 09:21:27;;;;;;;;;;;8.20;99.90;;;;;;5072834;28;19980;-80
2021/11/12 09:23:54;;;;;;;;;;;9.20;99.90;;;;;;5071324;28;19925;-82
2021/11/12 09:26:20;;;;;;;;;;;8.30;99.90;;;;;;5077685;28;20024;-83
2021/11/12 09:28:47;;;;;;;;;;;8.40;99.90;;;;;;5077745;28;19925;-82
2021/11/12 09:31:17;;;;;;;;;;;8.50;99.90;;;;;;5076696;28;19925;-80
2021/11/12 09:33:44;;;;;;;;;;;8.50;99.90;;;;;;5076679;28;19936;-81
2021/11/12 09:36:11;;;;;;;;;;;8.50;99.90;;;;;;5076957;28;19925;-82
2021/11/12 09:38:38;;;;;;;;;;;8.50;99.90;;;;;;5080854;28;19924;-81
2021/11/12 09:41:05;;;;;;;;;;;8.50;99.90;;;;;;5080701;28;19935;-81
2021/11/12 09:43:31;;;;;;;;;;;8.60;99.90;;;;;;5080281;28;19920;-82
2021/11/12 09:45:58;;;;;;;;;;;8.80;99.90;;;;;;5079461;28;19963;-81
2021/11/12 09:48:26;;;;;;;;;;;8.70;99.90;;;;;;5079248;28;19913;-82
2021/11/12 09:50:52;;;;;;;;;;;8.80;99.90;;;;;;5077030;28;19928;-81
2021/11/12 09:53:19;;;;;;;;;;;9.00;99.90;;;;;;5076559;28;19925;-81
2021/11/12 09:55:47;;;;;;;;;;;8.90;99.90;;;;;;5076914;28;19931;-81
2021/11/12 09:58:14;;;;;;;;;;;9.00;99.90;;;;;;5067412;28;20260;-82
2021/11/12 10:00:41;;;;;;;;;;;8.80;99.90;;;;;;5067040;28;19925;-83
2021/11/12 10:03:09;;;;;;;;;;;8.80;99.90;;;;;;5063278;28;19925;-83
2021/11/12 10:05:39;;;;;;;;;;;8.70;99.90;;;;;;5069015;28;19935;-82
2021/11/12 10:08:21;;;;;;;;;;;8.70;99.90;;;;;;5075910;28;19925;-82
2021/11/12 10:10:48;;;;;;;;;;;8.70;99.90;;;;;;5075193;28;20011;-82
2021/11/12 10:13:26;;;;;;;;;;;8.60;99.90;;;;;;5076730;28;19925;-82
2021/11/12 10:15:54;;;;;;;;;;;8.90;99.90;;;;;;5067679;28;19929;-83
2021/11/12 10:18:21;;;;;;;;;;;8.80;99.90;;;;;;5061332;28;20347;-83
2021/11/12 10:20:59;;;;;;;;;;;8.80;99.90;;;;;;5064686;28;19925;-82
2021/11/12 10:23:30;;;;;;;;;;;8.70;99.90;;;;;;5060875;28;19963;-83
2021/11/12 10:25:57;;;;;;;;;;;8.80;99.90;;;;;;5067306;28;19996;-83
2021/11/12 10:28:34;;;;;;;;;;;8.80;99.90;;;;;;5065431;28;19974;-84
2021/11/12 10:31:09;;;;;;;;;;;8.80;99.90;;;;;;5064745;28;20438;-83
2021/11/12 10:33:36;;;;;;;;;;;8.70;99.90;;;;;;5062322;28;19932;-83
2021/11/12 10:36:04;;;;;;;;;;;8.70;99.90;;;;;;5060837;28;20356;-83
2021/11/12 10:38:37;;;;;;;;;;;8.80;99.90;;;;;;5060115;28;19925;-83
2021/11/12 10:41:12;;;;;;;;;;;8.80;99.90;;;;;;5059906;28;19996;-83
2021/11/12 10:43:39;;;;;;;;;;;8.90;99.90;;;;;;5060321;28;19925;-83
2021/11/12 10:46:07;;;;;;;;;;;8.80;99.90;;;;;;5060254;28;19939;-83
2021/11/12 10:48:33;;;;;;;;;;;8.90;99.90;;;;;;5059260;28;19992;-83
2021/11/12 10:51:15;;;;;;;;;;;8.90;99.90;;;;;;5062098;28;19924;-83
2021/11/12 10:53:45;;;;;;;;;;;8.90;99.90;;;;;;5061002;28;19925;-84
2021/11/12 10:56:11;;;;;;;;;;;8.90;99.90;;;;;;5060501;28;20027;-82
2021/11/12 10:58:56;;;;;;;;;;;9.00;99.90;;;;;;5058993;28;20445;-82
2021/11/12 11:01:30;;;;;;;;;;;8.90;99.90;;;;;;5060319;28;19967;-82
2021/11/12 11:04:13;;;;;;;;;;;8.90;99.90;;;;;;5065889;28;20332;-82
2021/11/12 11:06:41;;;;;;;;;;;9.00;99.90;;;;;;5071066;28;19968;-82
2021/11/12 11:09:07;;;;;;;;;;;8.90;99.90;;;;;;5071485;28;19928;-82
2021/11/12 11:11:38;;;;;;;;;;;8.90;99.90;;;;;;5068724;28;19925;-82
2021/11/12 11:14:05;;;;;;;;;;;8.80;99.90;;;;;;5063370;28;19925;-83
2021/11/12 11:16:35;;;;;;;;;;;9.00;99.90;;;;;;5069883;28;19947;-82
2021/11/12 11:19:02;;;;;;;;;;;9.00;99.90;;;;;;5069378;28;19928;-82
2021/11/12 11:21:30;;;;;;;;;;;8.70;99.90;;;;;;5066936;28;19936;-82
2021/11/12 11:23:59;;;;;;;;;;;8.70;99.90;;;;;;5072125;28;19924;-83
2021/11/12 11:26:27;;;;;;;;;;;9.10;99.90;;;;;;5077695;28;19929;-81
2021/11/12 11:28:54;;;;;;;;;;;9.10;99.90;;;;;;5071303;28;19925;-82
2021/11/12 11:31:22;;;;;;;;;;;9.10;99.90;;;;;;5063063;28;19982;-82
2021/11/12 11:33:49;;;;;;;;;;;9.20;99.90;;;;;;5069387;28;19951;-83
2021/11/12 11:36:16;;;;;;;;;;;9.10;99.90;;;;;;5064024;28;19979;-83
2021/11/12 11:38:44;;;;;;;;;;;9.20;99.90;;;;;;5060271;28;19929;-81
2021/11/12 11:41:13;;;;;;;;;;;9.00;99.90;;;;;;5060516;28;19967;-83
2021/11/12 11:43:39;;;;;;;;;;;9.30;99.90;;;;;;5063243;28;19924;-82
2021/11/12 11:46:07;;;;;;;;;;;9.20;99.90;;;;;;5066595;28;19929;-83
2021/11/12 11:48:35;;;;;;;;;;;8.80;99.90;;;;;;5066251;28;19995;-83
2021/11/12 11:51:03;;;;;;;;;;;9.20;99.90;;;;;;5068543;28;20383;-83
2021/11/12 11:53:32;;;;;;;;;;;9.10;99.90;;;;;;5066848;28;19988;-82
2021/11/12 11:56:14;;;;;;;;;;;9.10;99.90;;;;;;5064348;28;19925;-84
2021/11/12 11:58:42;;;;;;;;;;;9.20;99.90;;;;;;5061609;28;19925;-84
2021/11/12 12:01:33;;;;;;;;;;;9.30;99.90;;;;;;5061234;28;19934;-83
2021/11/12 12:04:30;;;;;;;;;;;9.30;99.90;;;;;;5071765;28;19996;-83
2021/11/12 12:07:16;;;;;;;;;;;9.30;99.90;;;;;;5061910;28;19924;-83
2021/11/12 12:09:45;;;;;;;;;;;9.30;99.90;;;;;;5059071;28;20342;-83
2021/11/12 12:12:13;;;;;;;;;;;9.30;99.90;;;;;;5060853;28;19925;-83
2021/11/12 12:14:40;;;;;;;;;;;9.20;99.90;;;;;;5061520;28;19932;-83
2021/11/12 12:17:10;;;;;;;;;;;9.20;99.90;;;;;;5059855;28;19925;-84
2021/11/12 12:19:45;;;;;;;;;;;9.10;99.90;;;;;;5066175;28;19932;-82
2021/11/12 12:30:52;;;;;;;;;;;9.10;99.90;;;;;;5070206;28;19955;-82
2021/11/12 12:31:22;;;;;;;;;;;9.10;99.90;;;;;;5059104;28;19988;-83
2021/11/12 12:34:22;;;;;;;;;;;9.00;99.90;;;;;;5059716;28;20015;-83
2021/11/12 12:37:34;;;;;;;;;;;9.20;99.90;;;;;;5060899;28;19920;-83
2021/11/12 13:22:43;;;;;;;;;;;9.10;99.90;;;;;;5116774;28;19931;-84
2021/11/12 13:25:11;;;;;;;;;;;9.10;99.90;;;;;;5117170;28;19963;-82
2021/11/12 13:27:37;;;;;;;;;;;9.00;99.90;;;;;;5126560;28;19924;-79
2021/11/12 13:30:05;;;;;;;;;;;8.90;99.90;;;;;;5123738;28;19924;-82
2021/11/12 13:32:35;;;;;;;;;;;8.90;99.90;;;;;;5133906;28;19938;-81
2021/11/12 13:35:03;;;;;;;;;;;8.90;99.90;;;;;;5135377;28;19930;-81
2021/11/12 13:37:30;;;;;;;;;;;8.90;99.90;;;;;;5132973;28;20027;-82
2021/11/12 13:40:10;;;;;;;;;;;8.90;99.90;;;;;;5134133;28;19931;-83
2021/11/12 13:42:41;;;;;;;;;;;9.00;99.90;;;;;;5132201;28;19928;-81
2021/11/12 13:45:15;;;;;;;;;;;8.90;99.90;;;;;;5146152;28;19923;-81
2021/11/12 13:47:43;;;;;;;;;;;8.90;99.90;;;;;;5148299;27;19969;-82
2021/11/12 13:50:11;;;;;;;;;;;8.70;99.90;;;;;;5151420;28;19924;-82
2021/11/12 13:52:42;;;;;;;;;;;8.90;99.90;;;;;;5151479;28;20370;-80
2021/11/12 13:55:11;;;;;;;;;;;8.90;99.90;;;;;;5150191;28;19923;-81
2021/11/12 13:57:38;;;;;;;;;;;8.90;99.90;;;;;;5139188;28;19923;-81
2021/11/12 14:00:06;;;;;;;;;;;8.90;99.90;;;;;;5139359;28;19962;-82
2021/11/12 14:02:49;;;;;;;;;;;8.90;99.90;;;;;;5138534;28;20362;-81
2021/11/12 14:05:17;;;;;;;;;;;8.90;99.90;;;;;;5139197;28;19912;-82
2021/11/12 14:07:45;;;;;;;;;;;8.90;99.90;;;;;;5136204;28;19945;-81
2021/11/12 14:10:13;;;;;;;;;;;8.80;99.90;;;;;;5134157;28;19924;-83
2021/11/12 14:12:51;;;;;;;;;;;8.90;99.90;;;;;;5126823;28;19983;-81
2021/11/12 14:15:19;;;;;;;;;;;8.80;99.90;;;;;;5128005;28;19928;-83
2021/11/12 14:17:55;;;;;;;;;;;8.90;99.90;;;;;;5125575;28;19945;-83
2021/11/12 14:20:27;;;;;;;;;;;8.90;99.90;;;;;;5123293;28;19924;-82
2021/11/12 14:23:01;;;;;;;;;;;8.90;99.90;;;;;;5122712;28;19932;-82
2021/11/12 14:25:39;;;;;;;;;;;8.80;99.90;;;;;;5122685;28;20295;-82
2021/11/12 14:28:13;;;;;;;;;;;8.70;99.90;;;;;;5123936;28;19950;-82
2021/11/12 14:36:31;;;;;;;;;;;8.60;99.90;;;;;;5120893;28;20018;-85
2021/11/12 14:39:09;;;;;;;;;;;8.60;99.90;;;;;;5125796;28;19923;-81
2021/11/12 14:41:58;;;;;;;;;;;8.60;99.90;;;;;;5127511;28;20010;-81
2021/11/12 14:44:41;;;;;;;;;;;8.60;99.90;;;;;;5120944;28;19924;-82
2021/11/12 14:47:15;;;;;;;;;;;8.60;99.90;;;;;;5121180;28;19935;-82
2021/11/12 14:49:58;;;;;;;;;;;8.60;99.90;;;;;;5126616;28;19935;-81
2021/11/12 14:52:26;;;;;;;;;;;8.70;99.90;;;;;;5125704;28;19962;-82
2021/11/12 14:55:03;;;;;;;;;;;8.60;99.90;;;;;;5122267;28;19931;-82
2021/11/12 14:57:31;;;;;;;;;;;8.60;99.90;;;;;;5124666;28;19924;-82
2021/11/12 15:00:00;;;;;;;;;;;8.70;99.90;;;;;;5122311;28;20386;-82
2021/11/12 15:02:28;;;;;;;;;;;8.70;99.90;;;;;;5121903;28;19935;-82
2021/11/12 15:04:55;;;;;;;;;;;8.60;99.90;;;;;;5127212;28;19945;-81
2021/11/12 15:07:25;;;;;;;;;;;8.60;99.90;;;;;;5128704;28;19930;-82
2021/11/12 15:09:53;;;;;;;;;;;8.50;99.90;;;;;;5122190;28;20338;-82
2021/11/12 15:12:20;;;;;;;;;;;8.50;99.90;;;;;;5121069;28;19923;-82
2021/11/12 15:14:50;;;;;;;;;;;8.50;99.90;;;;;;5119952;28;19975;-82
2021/11/12 15:17:17;;;;;;;;;;;8.50;99.90;;;;;;5120271;28;19927;-83
2021/11/12 15:19:46;;;;;;;;;;;8.50;99.90;;;;;;5120549;28;19923;-84
2021/11/12 15:22:23;;;;;;;;;;;8.50;99.90;;;;;;5120305;28;19924;-83
2021/11/12 15:25:01;;;;;;;;;;;8.50;99.90;;;;;;5120602;28;19986;-82
2021/11/12 15:27:42;;;;;;;;;;;8.40;99.90;;;;;;5121614;28;19924;-83
2021/11/12 15:30:13;;;;;;;;;;;8.00;99.90;;;;;;5134930;28;19915;-81
2021/11/12 15:32:40;;;;;;;;;;;7.60;99.90;;;;;;5134114;28;19924;-83
2021/11/12 15:35:10;;;;;;;;;;;8.40;99.90;;;;;;5132267;28;19935;-82
2021/11/12 15:37:42;;;;;;;;;;;8.40;99.90;;;;;;5131716;28;20379;-82
2021/11/12 15:40:15;;;;;;;;;;;8.40;99.90;;;;;;5133217;28;19974;-81
2021/11/12 15:45:29;;;;;;;;;;;8.40;99.90;;;;;;5134985;28;19934;-81
2021/11/12 15:48:05;;;;;;;;;;;8.40;99.90;;;;;;5133215;28;19938;-82
2021/11/12 15:50:38;;;;;;;;;;;8.40;99.90;;;;;;5133423;28;19912;-83
2021/11/12 15:53:12;;;;;;;;;;;8.50;99.90;;;;;;5133589;28;20391;-82
2021/11/12 15:55:48;;;;;;;;;;;8.50;99.90;;;;;;5128566;28;19927;-79
2021/11/12 15:58:36;;;;;;;;;;;8.50;99.90;;;;;;5127058;28;20425;-83
2021/11/12 16:01:23;;;;;;;;;;;8.50;99.90;;;;;;5122765;28;19979;-82
2021/11/12 16:06:51;;;;;;;;;;;8.50;99.90;;;;;;5125945;28;19946;-83
2021/11/12 16:09:26;;;;;;;;;;;8.50;99.90;;;;;;5130453;28;19942;-80
2021/11/12 16:12:06;;;;;;;;;;;8.50;99.90;;;;;;5134218;28;19912;-81
2021/11/12 16:14:37;;;;;;;;;;;8.50;99.90;;;;;;5132545;28;19995;-81
2021/11/12 16:19:56;;;;;;;;;;;8.50;99.90;;;;;;5093479;28;20394;-82
2021/11/12 16:22:38;;;;;;;;;;;8.40;99.90;;;;;;5121322;28;20278;-82
2021/11/12 16:25:11;;;;;;;;;;;8.40;99.90;;;;;;5120137;28;20459;-82
2021/11/12 16:27:41;;;;;;;;;;;8.40;99.90;;;;;;5120751;28;19919;-81
2021/11/12 16:30:09;;;;;;;;;;;8.40;99.90;;;;;;5119706;28;20285;-83
2021/11/12 16:32:42;;;;;;;;;;;8.50;99.90;;;;;;5120194;28;19923;-82
2021/11/12 16:35:10;;;;;;;;;;;8.50;99.90;;;;;;5119241;28;19924;-82
2021/11/12 16:37:37;;;;;;;;;;;8.50;99.90;;;;;;5119298;28;19931;-82
2021/11/12 16:40:06;;;;;;;;;;;8.50;99.90;;;;;;5119169;28;19923;-82
2021/11/12 16:42:49;;;;;;;;;;;8.50;99.90;;;;;;5127232;28;19918;-81
2021/11/12 16:45:26;;;;;;;;;;;8.50;99.90;;;;;;5130902;28;19923;-83
2021/11/12 16:48:05;;;;;;;;;;;8.50;99.90;;;;;;5120939;28;20310;-83
2021/11/12 16:50:39;;;;;;;;;;;9.10;99.90;;;;;;5120485;28;19924;-82
2021/11/12 16:53:14;;;;;;;;;;;8.50;99.90;;;;;;5119916;28;20113;-83
2021/11/12 16:58:35;;;;;;;;;;;8.50;99.90;;;;;;5098700;28;19924;-82
2021/11/12 17:04:12;;;;;;;;;;;8.50;99.90;;;;;;5095909;27;1856661;-81
2021/11/12 17:06:43;;;;;;;;;;;8.50;99.90;;;;;;5151228;27;20350;-82
2021/11/12 17:12:20;;;;;;;;;;;8.50;99.90;;;;;;5087001;28;19932;-81
2021/11/12 17:14:58;;;;;;;;;;;8.50;99.90;;;;;;5144322;28;19983;-82
2021/11/12 17:17:33;;;;;;;;;;;8.50;99.90;;;;;;5132091;22;19935;-83
2021/11/12 17:23:30;;;;;;;;;;;8.40;99.90;;;;;;5014046;28;19988;-83
2021/11/12 17:45:34;;;;;;;;;;;8.10;99.90;;;;;;5062364;28;19986;-84
2021/11/12 17:48:07;;;;;;;;;;;8.10;99.90;;;;;;5061340;28;19963;-83
2021/11/12 17:50:38;;;;;;;;;;;8.10;99.90;;;;;;5062150;28;19952;-83
2021/11/12 17:53:42;;;;;;;;;;;8.00;99.90;;;;;;5061059;28;19957;-83
2021/11/12 18:04:29;;;;;;;;;;;8.10;99.90;;;;;;5062427;28;19940;-82
2021/11/12 18:07:05;;;;;;;;;;;7.80;99.90;;;;;;5063081;28;19975;-83
2021/11/12 18:09:53;;;;;;;;;;;7.80;99.90;;;;;;5064387;28;19950;-84
2021/11/12 18:15:52;;;;;;;;;;;7.80;99.90;;;;;;5010749;28;19941;-83
2021/11/12 18:21:34;;;;;;;;;;;7.70;99.90;;;;;;5060567;28;19949;-83
2021/11/12 18:24:47;;;;;;;;;;;7.70;99.90;;;;;;5057937;28;19941;-83
2021/11/12 21:44:37;;;;;;;;;;;5.30;99.90;;;;;;5051598;28;19928;-85
2021/11/12 21:47:04;;;;;;;;;;;5.20;99.90;;;;;;5053905;28;19925;-85
2021/11/12 21:49:31;;;;;;;;;;;5.20;99.90;;;;;;5057826;28;19913;-84
2021/11/12 21:52:00;;;;;;;;;;;5.20;99.90;;;;;;5059604;28;19925;-84
2021/11/12 21:54:27;;;;;;;;;;;5.10;99.90;;;;;;5062186;28;19925;-81
2021/11/12 21:56:56;;;;;;;;;;;5.10;99.90;;;;;;5060846;28;19933;-82
2021/11/12 21:59:22;;;;;;;;;;;5.10;99.90;;;;;;5059864;28;19959;-83
2021/11/12 22:01:49;;;;;;;;;;;5.10;99.90;;;;;;5061376;28;19909;-82
2021/11/12 22:04:16;;;;;;;;;;;5.00;99.90;;;;;;5059066;28;20036;-83
2021/11/12 22:06:42;;;;;;;;;;;5.00;99.90;;;;;;5055146;28;19933;-84
2021/11/12 22:09:10;;;;;;;;;;;5.00;99.90;;;;;;5054083;28;19987;-83
2021/11/12 22:11:37;;;;;;;;;;;5.00;99.90;;;;;;5054312;28;19978;-83
2021/11/12 22:14:05;;;;;;;;;;;5.00;99.90;;;;;;5054464;28;20379;-82
2021/11/12 22:16:31;;;;;;;;;;;4.90;99.90;;;;;;5054561;28;19960;-83
2021/11/12 22:18:58;;;;;;;;;;;4.90;99.90;;;;;;5053786;28;19932;-82
2021/11/12 22:21:25;;;;;;;;;;;4.50;99.90;;;;;;5051859;28;19948;-83
2021/11/12 22:23:51;;;;;;;;;;;4.80;99.90;;;;;;5052894;28;19914;-82